sensor_id;sensor_type;location;lat;lon;timestamp;P1;durP1;ratioP1;P2;durP2;ratioP2
33858;SDS011;20156;47.486;12.074;2023-08-08T00:00:46;1.60;;;1.50;;
33858;SDS011;20156;47.486;12.074;2023-08-08T00:03:12;2.00;;;1.60;;
33858;SDS011;20156;47.486;12.074;2023-08-08T00:05:38;2.08;;;1.60;;
33858;SDS011;20156;47.486;12.074;2023-08-08T00:08:03;1.77;;;1.58;;
33858;SDS011;20156;47.486;12.074;2023-08-08T00:10:29;2.00;;;1.70;;
33858;SDS011;20156;47.486;12.074;2023-08-08T00:12:54;1.50;;;1.40;;
33858;SDS011;20156;47.486;12.074;2023-08-08T00:15:20;2.75;;;1.52;;
33858;SDS011;20156;47.486;12.074;2023-08-08T00:17:46;2.72;;;1.52;;
33858;SDS011;20156;47.486;12.074;2023-08-08T00:20:11;1.50;;;1.40;;
33858;SDS011;20156;47.486;12.074;2023-08-08T00:22:37;2.00;;;1.67;;
33858;SDS011;20156;47.486;12.074;2023-08-08T00:25:02;2.42;;;1.60;;
33858;SDS011;20156;47.486;12.074;2023-08-08T00:27:28;2.60;;;1.60;;
33858;SDS011;20156;47.486;12.074;2023-08-08T00:29:54;1.80;;;1.70;;
33858;SDS011;20156;47.486;12.074;2023-08-08T00:32:19;3.30;;;1.85;;
33858;SDS011;20156;47.486;12.074;2023-08-08T00:34:45;1.65;;;1.55;;
33858;SDS011;20156;47.486;12.074;2023-08-08T00:37:11;1.98;;;1.83;;
33858;SDS011;20156;47.486;12.074;2023-08-08T00:39:36;1.70;;;1.60;;
33858;SDS011;20156;47.486;12.074;2023-08-08T00:42:02;1.70;;;1.60;;
33858;SDS011;20156;47.486;12.074;2023-08-08T00:44:27;2.72;;;1.60;;
33858;SDS011;20156;47.486;12.074;2023-08-08T00:46:53;2.00;;;1.80;;
33858;SDS011;20156;47.486;12.074;2023-08-08T00:49:18;1.92;;;1.60;;
33858;SDS011;20156;47.486;12.074;2023-08-08T00:51:44;1.83;;;1.60;;
33858;SDS011;20156;47.486;12.074;2023-08-08T00:54:10;2.40;;;1.75;;
33858;SDS011;20156;47.486;12.074;2023-08-08T00:56:36;1.65;;;1.55;;
33858;SDS011;20156;47.486;12.074;2023-08-08T00:59:02;3.80;;;1.55;;
33858;SDS011;20156;47.486;12.074;2023-08-08T01:01:28;2.65;;;1.58;;
33858;SDS011;20156;47.486;12.074;2023-08-08T01:03:53;2.08;;;1.88;;
33858;SDS011;20156;47.486;12.074;2023-08-08T01:12:07;2.10;;;1.70;;
33858;SDS011;20156;47.486;12.074;2023-08-08T01:14:35;2.28;;;1.70;;
33858;SDS011;20156;47.486;12.074;2023-08-08T01:17:02;1.77;;;1.63;;
33858;SDS011;20156;47.486;12.074;2023-08-08T01:19:29;1.85;;;1.73;;
33858;SDS011;20156;47.486;12.074;2023-08-08T01:22:01;2.78;;;1.65;;
33858;SDS011;20156;47.486;12.074;2023-08-08T01:24:28;2.30;;;1.63;;
33858;SDS011;20156;47.486;12.074;2023-08-08T01:26:58;2.25;;;2.03;;
33858;SDS011;20156;47.486;12.074;2023-08-08T01:29:25;1.70;;;1.60;;
33858;SDS011;20156;47.486;12.074;2023-08-08T01:31:50;3.42;;;1.90;;
33858;SDS011;20156;47.486;12.074;2023-08-08T01:34:16;1.55;;;1.45;;
33858;SDS011;20156;47.486;12.074;2023-08-08T01:36:59;5.15;;;1.88;;
33858;SDS011;20156;47.486;12.074;2023-08-08T01:39:47;2.55;;;1.63;;
33858;SDS011;20156;47.486;12.074;2023-08-08T01:42:15;1.70;;;1.60;;
33858;SDS011;20156;47.486;12.074;2023-08-08T01:44:43;2.40;;;1.85;;
33858;SDS011;20156;47.486;12.074;2023-08-08T01:47:09;3.83;;;2.05;;
33858;SDS011;20156;47.486;12.074;2023-08-08T01:49:34;1.90;;;1.80;;
33858;SDS011;20156;47.486;12.074;2023-08-08T01:52:00;2.05;;;1.80;;
33858;SDS011;20156;47.486;12.074;2023-08-08T01:54:25;4.03;;;2.15;;
33858;SDS011;20156;47.486;12.074;2023-08-08T01:56:51;1.77;;;1.50;;
33858;SDS011;20156;47.486;12.074;2023-08-08T01:59:16;2.08;;;1.85;;
33858;SDS011;20156;47.486;12.074;2023-08-08T02:01:42;2.25;;;2.00;;
33858;SDS011;20156;47.486;12.074;2023-08-08T02:04:07;3.08;;;2.00;;
33858;SDS011;20156;47.486;12.074;2023-08-08T02:06:33;2.65;;;2.08;;
33858;SDS011;20156;47.486;12.074;2023-08-08T02:08:58;3.42;;;2.13;;
33858;SDS011;20156;47.486;12.074;2023-08-08T02:11:23;2.67;;;2.10;;
33858;SDS011;20156;47.486;12.074;2023-08-08T02:13:49;1.95;;;1.80;;
33858;SDS011;20156;47.486;12.074;2023-08-08T02:16:14;3.70;;;2.10;;
33858;SDS011;20156;47.486;12.074;2023-08-08T02:18:40;2.45;;;1.90;;
33858;SDS011;20156;47.486;12.074;2023-08-08T02:21:09;1.60;;;1.50;;
33858;SDS011;20156;47.486;12.074;2023-08-08T02:23:35;2.50;;;1.75;;
33858;SDS011;20156;47.486;12.074;2023-08-08T02:26:00;4.38;;;1.67;;
33858;SDS011;20156;47.486;12.074;2023-08-08T02:28:26;2.75;;;1.83;;
33858;SDS011;20156;47.486;12.074;2023-08-08T02:30:52;3.17;;;1.40;;
33858;SDS011;20156;47.486;12.074;2023-08-08T02:33:18;2.78;;;1.77;;
33858;SDS011;20156;47.486;12.074;2023-08-08T02:35:44;1.60;;;1.50;;
33858;SDS011;20156;47.486;12.074;2023-08-08T02:38:09;1.42;;;1.33;;
33858;SDS011;20156;47.486;12.074;2023-08-08T02:40:35;1.83;;;1.52;;
33858;SDS011;20156;47.486;12.074;2023-08-08T02:43:00;2.28;;;1.90;;
33858;SDS011;20156;47.486;12.074;2023-08-08T02:45:26;1.92;;;1.60;;
33858;SDS011;20156;47.486;12.074;2023-08-08T02:47:51;2.38;;;2.10;;
33858;SDS011;20156;47.486;12.074;2023-08-08T02:50:16;3.25;;;2.05;;
33858;SDS011;20156;47.486;12.074;2023-08-08T02:52:42;2.22;;;2.00;;
33858;SDS011;20156;47.486;12.074;2023-08-08T02:55:08;3.60;;;2.28;;
33858;SDS011;20156;47.486;12.074;2023-08-08T02:57:34;2.67;;;2.20;;
33858;SDS011;20156;47.486;12.074;2023-08-08T02:59:59;3.03;;;2.00;;
33858;SDS011;20156;47.486;12.074;2023-08-08T03:02:25;4.82;;;2.40;;
33858;SDS011;20156;47.486;12.074;2023-08-08T03:04:50;3.53;;;2.22;;
33858;SDS011;20156;47.486;12.074;2023-08-08T03:07:16;2.20;;;2.00;;
33858;SDS011;20156;47.486;12.074;2023-08-08T03:09:41;2.17;;;1.85;;
33858;SDS011;20156;47.486;12.074;2023-08-08T03:12:07;2.55;;;2.10;;
33858;SDS011;20156;47.486;12.074;2023-08-08T03:14:33;2.05;;;1.90;;
33858;SDS011;20156;47.486;12.074;2023-08-08T03:16:58;2.03;;;1.83;;
33858;SDS011;20156;47.486;12.074;2023-08-08T03:19:24;2.05;;;1.85;;
33858;SDS011;20156;47.486;12.074;2023-08-08T03:21:50;2.20;;;1.88;;
33858;SDS011;20156;47.486;12.074;2023-08-08T03:24:16;2.72;;;1.83;;
33858;SDS011;20156;47.486;12.074;2023-08-08T03:26:41;2.03;;;1.88;;
33858;SDS011;20156;47.486;12.074;2023-08-08T03:29:07;3.22;;;1.80;;
33858;SDS011;20156;47.486;12.074;2023-08-08T03:31:35;2.38;;;2.17;;
33858;SDS011;20156;47.486;12.074;2023-08-08T03:34:01;3.35;;;1.85;;
33858;SDS011;20156;47.486;12.074;2023-08-08T03:36:26;2.50;;;2.05;;
33858;SDS011;20156;47.486;12.074;2023-08-08T03:38:51;2.13;;;1.90;;
33858;SDS011;20156;47.486;12.074;2023-08-08T03:41:18;1.98;;;1.77;;
33858;SDS011;20156;47.486;12.074;2023-08-08T03:43:43;2.47;;;1.83;;
33858;SDS011;20156;47.486;12.074;2023-08-08T03:46:09;1.77;;;1.67;;
33858;SDS011;20156;47.486;12.074;2023-08-08T03:48:35;2.97;;;1.83;;
33858;SDS011;20156;47.486;12.074;2023-08-08T03:51:01;1.70;;;1.52;;
33858;SDS011;20156;47.486;12.074;2023-08-08T03:53:26;1.70;;;1.60;;
33858;SDS011;20156;47.486;12.074;2023-08-08T03:55:52;1.90;;;1.70;;
33858;SDS011;20156;47.486;12.074;2023-08-08T03:58:17;2.88;;;2.55;;
33858;SDS011;20156;47.486;12.074;2023-08-08T04:00:43;4.00;;;2.23;;
33858;SDS011;20156;47.486;12.074;2023-08-08T04:03:14;2.50;;;2.30;;
33858;SDS011;20156;47.486;12.074;2023-08-08T04:05:40;3.00;;;2.63;;
33858;SDS011;20156;47.486;12.074;2023-08-08T04:08:06;2.63;;;2.20;;
33858;SDS011;20156;47.486;12.074;2023-08-08T04:10:32;4.35;;;2.40;;
33858;SDS011;20156;47.486;12.074;2023-08-08T04:12:57;2.13;;;1.80;;
33858;SDS011;20156;47.486;12.074;2023-08-08T04:15:23;2.85;;;2.10;;
33858;SDS011;20156;47.486;12.074;2023-08-08T04:17:48;4.68;;;2.33;;
33858;SDS011;20156;47.486;12.074;2023-08-08T04:20:14;4.68;;;2.22;;
33858;SDS011;20156;47.486;12.074;2023-08-08T04:22:39;2.73;;;2.00;;
33858;SDS011;20156;47.486;12.074;2023-08-08T04:25:05;2.63;;;2.03;;
33858;SDS011;20156;47.486;12.074;2023-08-08T04:27:31;3.05;;;1.70;;
33858;SDS011;20156;47.486;12.074;2023-08-08T04:29:57;2.17;;;1.80;;
33858;SDS011;20156;47.486;12.074;2023-08-08T04:32:22;2.15;;;1.65;;
33858;SDS011;20156;47.486;12.074;2023-08-08T04:34:47;2.30;;;1.85;;
33858;SDS011;20156;47.486;12.074;2023-08-08T04:37:13;1.90;;;1.70;;
33858;SDS011;20156;47.486;12.074;2023-08-08T04:39:38;2.00;;;1.70;;
33858;SDS011;20156;47.486;12.074;2023-08-08T04:42:04;2.25;;;1.85;;
33858;SDS011;20156;47.486;12.074;2023-08-08T04:44:29;2.78;;;1.80;;
33858;SDS011;20156;47.486;12.074;2023-08-08T04:46:55;3.00;;;1.80;;
33858;SDS011;20156;47.486;12.074;2023-08-08T04:49:20;1.92;;;1.67;;
33858;SDS011;20156;47.486;12.074;2023-08-08T04:51:46;1.90;;;1.58;;
33858;SDS011;20156;47.486;12.074;2023-08-08T04:54:11;4.35;;;1.70;;
33858;SDS011;20156;47.486;12.074;2023-08-08T04:56:37;2.17;;;1.80;;
33858;SDS011;20156;47.486;12.074;2023-08-08T04:59:02;2.10;;;1.80;;
33858;SDS011;20156;47.486;12.074;2023-08-08T05:01:27;1.80;;;1.70;;
33858;SDS011;20156;47.486;12.074;2023-08-08T05:03:53;3.10;;;2.20;;
33858;SDS011;20156;47.486;12.074;2023-08-08T05:06:18;2.20;;;2.00;;
33858;SDS011;20156;47.486;12.074;2023-08-08T05:08:44;2.53;;;1.80;;
33858;SDS011;20156;47.486;12.074;2023-08-08T05:11:09;3.35;;;2.35;;
33858;SDS011;20156;47.486;12.074;2023-08-08T05:13:35;2.17;;;1.88;;
33858;SDS011;20156;47.486;12.074;2023-08-08T05:16:00;2.20;;;1.80;;
33858;SDS011;20156;47.486;12.074;2023-08-08T05:18:26;1.83;;;1.52;;
33858;SDS011;20156;47.486;12.074;2023-08-08T05:20:51;2.53;;;1.67;;
33858;SDS011;20156;47.486;12.074;2023-08-08T05:23:16;2.58;;;1.95;;
33858;SDS011;20156;47.486;12.074;2023-08-08T05:25:42;2.85;;;1.80;;
33858;SDS011;20156;47.486;12.074;2023-08-08T05:28:07;2.75;;;2.10;;
33858;SDS011;20156;47.486;12.074;2023-08-08T05:30:33;3.35;;;1.73;;
33858;SDS011;20156;47.486;12.074;2023-08-08T05:32:58;2.38;;;2.15;;
33858;SDS011;20156;47.486;12.074;2023-08-08T05:35:24;3.85;;;2.30;;
33858;SDS011;20156;47.486;12.074;2023-08-08T05:37:49;2.65;;;1.95;;
33858;SDS011;20156;47.486;12.074;2023-08-08T05:40:14;3.85;;;2.25;;
33858;SDS011;20156;47.486;12.074;2023-08-08T05:42:40;3.92;;;2.63;;
33858;SDS011;20156;47.486;12.074;2023-08-08T05:45:06;2.97;;;2.40;;
33858;SDS011;20156;47.486;12.074;2023-08-08T05:47:32;2.28;;;2.00;;
33858;SDS011;20156;47.486;12.074;2023-08-08T05:49:58;2.08;;;1.90;;
33858;SDS011;20156;47.486;12.074;2023-08-08T05:52:23;3.53;;;2.00;;
33858;SDS011;20156;47.486;12.074;2023-08-08T05:54:49;4.80;;;1.88;;
33858;SDS011;20156;47.486;12.074;2023-08-08T05:57:14;3.92;;;2.17;;
33858;SDS011;20156;47.486;12.074;2023-08-08T05:59:39;1.90;;;1.80;;
33858;SDS011;20156;47.486;12.074;2023-08-08T06:02:05;1.85;;;1.70;;
33858;SDS011;20156;47.486;12.074;2023-08-08T06:04:31;2.55;;;1.83;;
33858;SDS011;20156;47.486;12.074;2023-08-08T06:06:56;1.88;;;1.63;;
33858;SDS011;20156;47.486;12.074;2023-08-08T06:09:22;3.35;;;2.20;;
33858;SDS011;20156;47.486;12.074;2023-08-08T06:11:47;3.42;;;2.00;;
33858;SDS011;20156;47.486;12.074;2023-08-08T06:14:13;3.38;;;1.77;;
33858;SDS011;20156;47.486;12.074;2023-08-08T06:16:38;3.10;;;2.10;;
33858;SDS011;20156;47.486;12.074;2023-08-08T06:19:04;3.00;;;1.90;;
33858;SDS011;20156;47.486;12.074;2023-08-08T06:21:30;3.70;;;2.33;;
33858;SDS011;20156;47.486;12.074;2023-08-08T06:23:55;2.85;;;2.30;;
33858;SDS011;20156;47.486;12.074;2023-08-08T06:26:21;3.55;;;2.00;;
33858;SDS011;20156;47.486;12.074;2023-08-08T06:28:47;3.83;;;2.50;;
33858;SDS011;20156;47.486;12.074;2023-08-08T06:31:12;3.35;;;2.08;;
33858;SDS011;20156;47.486;12.074;2023-08-08T06:33:38;4.60;;;2.28;;
33858;SDS011;20156;47.486;12.074;2023-08-08T06:36:04;4.57;;;2.10;;
33858;SDS011;20156;47.486;12.074;2023-08-08T06:38:30;4.22;;;2.38;;
33858;SDS011;20156;47.486;12.074;2023-08-08T06:40:59;3.10;;;1.90;;
33858;SDS011;20156;47.486;12.074;2023-08-08T06:43:25;2.83;;;2.42;;
33858;SDS011;20156;47.486;12.074;2023-08-08T06:45:50;2.80;;;2.47;;
33858;SDS011;20156;47.486;12.074;2023-08-08T06:48:16;3.22;;;2.28;;
33858;SDS011;20156;47.486;12.074;2023-08-08T06:50:41;4.72;;;2.40;;
33858;SDS011;20156;47.486;12.074;2023-08-08T06:53:06;2.75;;;2.03;;
33858;SDS011;20156;47.486;12.074;2023-08-08T06:55:32;3.10;;;2.13;;
33858;SDS011;20156;47.486;12.074;2023-08-08T06:57:57;6.03;;;2.40;;
33858;SDS011;20156;47.486;12.074;2023-08-08T07:00:23;4.07;;;2.58;;
33858;SDS011;20156;47.486;12.074;2023-08-08T07:02:49;5.07;;;2.40;;
33858;SDS011;20156;47.486;12.074;2023-08-08T07:05:14;3.20;;;2.33;;
33858;SDS011;20156;47.486;12.074;2023-08-08T07:07:40;3.70;;;2.25;;
33858;SDS011;20156;47.486;12.074;2023-08-08T07:10:05;4.13;;;2.50;;
33858;SDS011;20156;47.486;12.074;2023-08-08T07:12:31;2.42;;;1.77;;
33858;SDS011;20156;47.486;12.074;2023-08-08T07:14:57;2.90;;;2.30;;
33858;SDS011;20156;47.486;12.074;2023-08-08T07:17:22;5.43;;;2.20;;
33858;SDS011;20156;47.486;12.074;2023-08-08T07:19:48;4.57;;;2.05;;
33858;SDS011;20156;47.486;12.074;2023-08-08T07:22:13;4.07;;;2.15;;
33858;SDS011;20156;47.486;12.074;2023-08-08T07:24:38;5.32;;;2.35;;
33858;SDS011;20156;47.486;12.074;2023-08-08T07:27:04;3.08;;;1.92;;
33858;SDS011;20156;47.486;12.074;2023-08-08T07:29:29;4.32;;;2.10;;
33858;SDS011;20156;47.486;12.074;2023-08-08T07:31:57;3.05;;;1.90;;
33858;SDS011;20156;47.486;12.074;2023-08-08T07:34:23;4.53;;;1.90;;
33858;SDS011;20156;47.486;12.074;2023-08-08T07:36:48;2.63;;;1.80;;
33858;SDS011;20156;47.486;12.074;2023-08-08T07:39:14;3.15;;;2.00;;
33858;SDS011;20156;47.486;12.074;2023-08-08T07:41:40;2.25;;;1.63;;
33858;SDS011;20156;47.486;12.074;2023-08-08T07:44:05;1.95;;;1.63;;
33858;SDS011;20156;47.486;12.074;2023-08-08T07:46:31;2.78;;;1.88;;
33858;SDS011;20156;47.486;12.074;2023-08-08T07:48:57;4.85;;;2.10;;
33858;SDS011;20156;47.486;12.074;2023-08-08T07:51:24;3.25;;;1.75;;
33858;SDS011;20156;47.486;12.074;2023-08-08T07:53:50;2.35;;;1.77;;
33858;SDS011;20156;47.486;12.074;2023-08-08T07:56:15;2.15;;;1.80;;
33858;SDS011;20156;47.486;12.074;2023-08-08T07:58:40;2.55;;;2.00;;
33858;SDS011;20156;47.486;12.074;2023-08-08T08:01:06;2.75;;;2.05;;
33858;SDS011;20156;47.486;12.074;2023-08-08T08:03:31;2.30;;;1.80;;
33858;SDS011;20156;47.486;12.074;2023-08-08T08:05:57;3.08;;;1.70;;
33858;SDS011;20156;47.486;12.074;2023-08-08T08:08:22;3.92;;;1.88;;
33858;SDS011;20156;47.486;12.074;2023-08-08T08:10:49;2.40;;;1.75;;
33858;SDS011;20156;47.486;12.074;2023-08-08T08:13:16;4.75;;;1.90;;
33858;SDS011;20156;47.486;12.074;2023-08-08T08:15:41;2.00;;;1.80;;
33858;SDS011;20156;47.486;12.074;2023-08-08T08:18:08;2.03;;;1.83;;
33858;SDS011;20156;47.486;12.074;2023-08-08T08:20:33;2.15;;;1.77;;
33858;SDS011;20156;47.486;12.074;2023-08-08T08:22:59;2.10;;;1.85;;
33858;SDS011;20156;47.486;12.074;2023-08-08T08:25:24;2.38;;;1.52;;
33858;SDS011;20156;47.486;12.074;2023-08-08T08:27:50;1.65;;;1.50;;
33858;SDS011;20156;47.486;12.074;2023-08-08T08:30:15;5.20;;;2.15;;
33858;SDS011;20156;47.486;12.074;2023-08-08T08:32:40;2.40;;;1.80;;
33858;SDS011;20156;47.486;12.074;2023-08-08T08:35:07;2.42;;;2.05;;
33858;SDS011;20156;47.486;12.074;2023-08-08T08:37:33;5.40;;;4.40;;
33858;SDS011;20156;47.486;12.074;2023-08-08T08:39:59;2.70;;;2.05;;
33858;SDS011;20156;47.486;12.074;2023-08-08T08:42:26;2.60;;;2.10;;
33858;SDS011;20156;47.486;12.074;2023-08-08T08:44:54;2.50;;;1.92;;
33858;SDS011;20156;47.486;12.074;2023-08-08T08:47:23;3.92;;;1.52;;
33858;SDS011;20156;47.486;12.074;2023-08-08T08:49:49;4.13;;;2.15;;
33858;SDS011;20156;47.486;12.074;2023-08-08T08:52:17;2.83;;;2.05;;
33858;SDS011;20156;47.486;12.074;2023-08-08T08:54:42;1.80;;;1.50;;
33858;SDS011;20156;47.486;12.074;2023-08-08T08:57:08;2.92;;;1.90;;
33858;SDS011;20156;47.486;12.074;2023-08-08T08:59:34;2.63;;;1.98;;
33858;SDS011;20156;47.486;12.074;2023-08-08T09:02:00;2.45;;;1.90;;
33858;SDS011;20156;47.486;12.074;2023-08-08T09:04:27;1.80;;;1.70;;
33858;SDS011;20156;47.486;12.074;2023-08-08T09:06:53;1.88;;;1.45;;
33858;SDS011;20156;47.486;12.074;2023-08-08T09:09:19;3.50;;;1.75;;
33858;SDS011;20156;47.486;12.074;2023-08-08T09:11:51;4.55;;;1.60;;
33858;SDS011;20156;47.486;12.074;2023-08-08T09:14:23;2.03;;;1.60;;
33858;SDS011;20156;47.486;12.074;2023-08-08T09:16:50;5.22;;;1.77;;
33858;SDS011;20156;47.486;12.074;2023-08-08T09:19:20;3.28;;;1.90;;
33858;SDS011;20156;47.486;12.074;2023-08-08T09:21:46;3.03;;;1.50;;
33858;SDS011;20156;47.486;12.074;2023-08-08T09:24:12;2.92;;;1.75;;
33858;SDS011;20156;47.486;12.074;2023-08-08T09:26:41;2.20;;;1.90;;
33858;SDS011;20156;47.486;12.074;2023-08-08T09:29:08;3.35;;;2.03;;
33858;SDS011;20156;47.486;12.074;2023-08-08T09:31:35;2.92;;;1.90;;
33858;SDS011;20156;47.486;12.074;2023-08-08T09:34:01;2.67;;;1.70;;
33858;SDS011;20156;47.486;12.074;2023-08-08T09:36:28;3.78;;;1.75;;
33858;SDS011;20156;47.486;12.074;2023-08-08T09:38:54;2.05;;;1.40;;
33858;SDS011;20156;47.486;12.074;2023-08-08T09:41:23;1.98;;;1.63;;
33858;SDS011;20156;47.486;12.074;2023-08-08T09:43:49;2.55;;;1.63;;
33858;SDS011;20156;47.486;12.074;2023-08-08T09:46:20;1.83;;;1.70;;
33858;SDS011;20156;47.486;12.074;2023-08-08T09:48:46;1.60;;;1.50;;
33858;SDS011;20156;47.486;12.074;2023-08-08T09:51:12;2.10;;;1.70;;
33858;SDS011;20156;47.486;12.074;2023-08-08T09:53:39;3.22;;;1.65;;
33858;SDS011;20156;47.486;12.074;2023-08-08T09:56:06;2.72;;;1.60;;
33858;SDS011;20156;47.486;12.074;2023-08-08T09:58:32;3.30;;;1.63;;
33858;SDS011;20156;47.486;12.074;2023-08-08T10:00:58;2.25;;;1.30;;
33858;SDS011;20156;47.486;12.074;2023-08-08T10:03:24;2.90;;;1.60;;
33858;SDS011;20156;47.486;12.074;2023-08-08T10:05:51;2.33;;;1.67;;
33858;SDS011;20156;47.486;12.074;2023-08-08T10:08:17;1.83;;;1.42;;
33858;SDS011;20156;47.486;12.074;2023-08-08T10:10:44;1.70;;;1.60;;
33858;SDS011;20156;47.486;12.074;2023-08-08T10:15:46;1.65;;;1.45;;
33858;SDS011;20156;47.486;12.074;2023-08-08T10:18:12;1.60;;;1.50;;
33858;SDS011;20156;47.486;12.074;2023-08-08T10:20:39;1.88;;;1.50;;
33858;SDS011;20156;47.486;12.074;2023-08-08T10:23:07;2.00;;;1.80;;
33858;SDS011;20156;47.486;12.074;2023-08-08T10:25:32;2.63;;;1.40;;
33858;SDS011;20156;47.486;12.074;2023-08-08T10:28:01;1.83;;;1.50;;
33858;SDS011;20156;47.486;12.074;2023-08-08T10:30:48;2.35;;;1.65;;
33858;SDS011;20156;47.486;12.074;2023-08-08T10:33:25;3.03;;;1.70;;
33858;SDS011;20156;47.486;12.074;2023-08-08T10:35:59;1.88;;;1.52;;
33858;SDS011;20156;47.486;12.074;2023-08-08T10:38:39;1.73;;;1.63;;
33858;SDS011;20156;47.486;12.074;2023-08-08T10:41:09;2.20;;;1.40;;
33858;SDS011;20156;47.486;12.074;2023-08-08T10:43:36;1.35;;;1.25;;
33858;SDS011;20156;47.486;12.074;2023-08-08T10:46:02;1.70;;;1.40;;
33858;SDS011;20156;47.486;12.074;2023-08-08T10:48:29;2.85;;;1.50;;
33858;SDS011;20156;47.486;12.074;2023-08-08T10:50:55;2.05;;;1.50;;
33858;SDS011;20156;47.486;12.074;2023-08-08T10:53:27;2.60;;;1.63;;
33858;SDS011;20156;47.486;12.074;2023-08-08T10:55:58;1.63;;;1.50;;
33858;SDS011;20156;47.486;12.074;2023-08-08T10:58:34;3.10;;;1.58;;
33858;SDS011;20156;47.486;12.074;2023-08-08T11:01:01;1.65;;;1.48;;
33858;SDS011;20156;47.486;12.074;2023-08-08T11:03:27;1.60;;;1.50;;
33858;SDS011;20156;47.486;12.074;2023-08-08T11:05:55;2.10;;;1.67;;
33858;SDS011;20156;47.486;12.074;2023-08-08T11:08:20;1.92;;;1.30;;
33858;SDS011;20156;47.486;12.074;2023-08-08T11:10:50;1.45;;;1.25;;
33858;SDS011;20156;47.486;12.074;2023-08-08T11:13:17;1.52;;;1.42;;
33858;SDS011;20156;47.486;12.074;2023-08-08T11:15:42;1.40;;;1.30;;
33858;SDS011;20156;47.486;12.074;2023-08-08T11:18:08;1.50;;;1.40;;
33858;SDS011;20156;47.486;12.074;2023-08-08T11:20:35;1.75;;;1.40;;
33858;SDS011;20156;47.486;12.074;2023-08-08T11:23:01;1.77;;;1.60;;
33858;SDS011;20156;47.486;12.074;2023-08-08T11:25:29;1.60;;;1.50;;
33858;SDS011;20156;47.486;12.074;2023-08-08T11:27:55;1.40;;;1.30;;
33858;SDS011;20156;47.486;12.074;2023-08-08T11:30:22;2.72;;;1.60;;
33858;SDS011;20156;47.486;12.074;2023-08-08T11:32:49;1.90;;;1.70;;
33858;SDS011;20156;47.486;12.074;2023-08-08T11:35:21;4.18;;;1.70;;
33858;SDS011;20156;47.486;12.074;2023-08-08T11:37:47;2.15;;;1.60;;
33858;SDS011;20156;47.486;12.074;2023-08-08T11:40:14;1.92;;;1.52;;
33858;SDS011;20156;47.486;12.074;2023-08-08T11:42:40;1.73;;;1.33;;
33858;SDS011;20156;47.486;12.074;2023-08-08T11:45:07;3.30;;;1.40;;
33858;SDS011;20156;47.486;12.074;2023-08-08T11:47:34;2.25;;;1.42;;
33858;SDS011;20156;47.486;12.074;2023-08-08T11:50:04;1.27;;;1.17;;
33858;SDS011;20156;47.486;12.074;2023-08-08T11:52:31;2.75;;;1.33;;
33858;SDS011;20156;47.486;12.074;2023-08-08T11:55:00;1.58;;;1.27;;
33858;SDS011;20156;47.486;12.074;2023-08-08T11:57:26;2.03;;;1.60;;
33858;SDS011;20156;47.486;12.074;2023-08-08T11:59:55;3.08;;;1.40;;
33858;SDS011;20156;47.486;12.074;2023-08-08T12:02:22;1.50;;;1.35;;
33858;SDS011;20156;47.486;12.074;2023-08-08T12:04:48;1.45;;;1.35;;
33858;SDS011;20156;47.486;12.074;2023-08-08T12:07:14;1.73;;;1.40;;
33858;SDS011;20156;47.486;12.074;2023-08-08T12:09:39;1.95;;;1.60;;
33858;SDS011;20156;47.486;12.074;2023-08-08T12:12:05;1.67;;;1.40;;
33858;SDS011;20156;47.486;12.074;2023-08-08T12:14:38;1.45;;;1.35;;
33858;SDS011;20156;47.486;12.074;2023-08-08T12:17:04;2.10;;;1.65;;
33858;SDS011;20156;47.486;12.074;2023-08-08T12:19:30;1.73;;;1.50;;
33858;SDS011;20156;47.486;12.074;2023-08-08T12:21:55;1.48;;;1.38;;
33858;SDS011;20156;47.486;12.074;2023-08-08T12:24:20;2.13;;;1.42;;
33858;SDS011;20156;47.486;12.074;2023-08-08T12:26:46;1.60;;;1.33;;
33858;SDS011;20156;47.486;12.074;2023-08-08T12:29:12;2.28;;;1.20;;
33858;SDS011;20156;47.486;12.074;2023-08-08T12:31:38;1.67;;;1.50;;
33858;SDS011;20156;47.486;12.074;2023-08-08T12:34:04;2.13;;;1.33;;
33858;SDS011;20156;47.486;12.074;2023-08-08T12:36:30;1.33;;;1.23;;
33858;SDS011;20156;47.486;12.074;2023-08-08T12:38:56;1.60;;;1.48;;
33858;SDS011;20156;47.486;12.074;2023-08-08T12:41:22;2.00;;;1.40;;
33858;SDS011;20156;47.486;12.074;2023-08-08T12:43:48;1.63;;;1.52;;
33858;SDS011;20156;47.486;12.074;2023-08-08T12:46:14;1.83;;;1.65;;
33858;SDS011;20156;47.486;12.074;2023-08-08T12:48:40;1.38;;;1.27;;
33858;SDS011;20156;47.486;12.074;2023-08-08T12:51:05;2.63;;;1.45;;
33858;SDS011;20156;47.486;12.074;2023-08-08T12:53:32;1.50;;;1.40;;
33858;SDS011;20156;47.486;12.074;2023-08-08T12:55:58;1.58;;;1.48;;
33858;SDS011;20156;47.486;12.074;2023-08-08T12:58:23;2.10;;;1.50;;
33858;SDS011;20156;47.486;12.074;2023-08-08T13:00:49;2.80;;;1.40;;
33858;SDS011;20156;47.486;12.074;2023-08-08T13:03:14;2.55;;;1.40;;
33858;SDS011;20156;47.486;12.074;2023-08-08T13:05:40;1.77;;;1.52;;
33858;SDS011;20156;47.486;12.074;2023-08-08T13:08:05;1.60;;;1.50;;
33858;SDS011;20156;47.486;12.074;2023-08-08T13:10:31;1.60;;;1.50;;
33858;SDS011;20156;47.486;12.074;2023-08-08T13:12:57;1.52;;;1.42;;
33858;SDS011;20156;47.486;12.074;2023-08-08T13:15:22;1.63;;;1.40;;
33858;SDS011;20156;47.486;12.074;2023-08-08T13:17:48;2.95;;;1.60;;
33858;SDS011;20156;47.486;12.074;2023-08-08T13:20:13;1.52;;;1.42;;
33858;SDS011;20156;47.486;12.074;2023-08-08T13:22:39;1.70;;;1.48;;
33858;SDS011;20156;47.486;12.074;2023-08-08T13:25:06;2.22;;;1.40;;
33858;SDS011;20156;47.486;12.074;2023-08-08T13:27:31;2.63;;;1.45;;
33858;SDS011;20156;47.486;12.074;2023-08-08T13:29:57;1.42;;;1.33;;
33858;SDS011;20156;47.486;12.074;2023-08-08T13:32:23;1.50;;;1.40;;
33858;SDS011;20156;47.486;12.074;2023-08-08T13:34:48;2.15;;;1.52;;
33858;SDS011;20156;47.486;12.074;2023-08-08T13:37:14;2.30;;;1.50;;
33858;SDS011;20156;47.486;12.074;2023-08-08T13:39:40;1.60;;;1.50;;
33858;SDS011;20156;47.486;12.074;2023-08-08T13:42:05;1.38;;;1.20;;
33858;SDS011;20156;47.486;12.074;2023-08-08T13:44:31;2.13;;;1.60;;
33858;SDS011;20156;47.486;12.074;2023-08-08T13:46:57;1.58;;;1.48;;
33858;SDS011;20156;47.486;12.074;2023-08-08T13:49:23;2.97;;;1.50;;
33858;SDS011;20156;47.486;12.074;2023-08-08T13:51:51;1.50;;;1.30;;
33858;SDS011;20156;47.486;12.074;2023-08-08T13:54:19;1.60;;;1.50;;
33858;SDS011;20156;47.486;12.074;2023-08-08T13:56:46;1.60;;;1.50;;
33858;SDS011;20156;47.486;12.074;2023-08-08T13:59:11;2.72;;;1.30;;
33858;SDS011;20156;47.486;12.074;2023-08-08T14:01:37;3.05;;;1.60;;
33858;SDS011;20156;47.486;12.074;2023-08-08T14:04:03;1.55;;;1.45;;
33858;SDS011;20156;47.486;12.074;2023-08-08T14:06:29;1.70;;;1.50;;
33858;SDS011;20156;47.486;12.074;2023-08-08T14:08:55;1.40;;;1.30;;
33858;SDS011;20156;47.486;12.074;2023-08-08T14:11:21;1.65;;;1.40;;
33858;SDS011;20156;47.486;12.074;2023-08-08T14:13:47;2.17;;;1.40;;
33858;SDS011;20156;47.486;12.074;2023-08-08T14:16:12;1.77;;;1.60;;
33858;SDS011;20156;47.486;12.074;2023-08-08T14:18:38;1.50;;;1.40;;
33858;SDS011;20156;47.486;12.074;2023-08-08T14:21:03;2.17;;;1.60;;
33858;SDS011;20156;47.486;12.074;2023-08-08T14:23:30;1.77;;;1.60;;
33858;SDS011;20156;47.486;12.074;2023-08-08T14:25:56;1.67;;;1.50;;
33858;SDS011;20156;47.486;12.074;2023-08-08T14:28:21;2.47;;;1.40;;
33858;SDS011;20156;47.486;12.074;2023-08-08T14:30:46;1.55;;;1.40;;
33858;SDS011;20156;47.486;12.074;2023-08-08T14:33:12;1.48;;;1.38;;
33858;SDS011;20156;47.486;12.074;2023-08-08T14:35:39;1.67;;;1.38;;